This is the latest recevied weather packets stored in our database for station/object KCBM. If no packets are shown the sender has not sent any weather packets the latest 10 day(s).
| Time | Temp. | Humidity | Pressure | Rain* | Wind** | Luminosity | Snow |
|---|---|---|---|---|---|---|---|
| 1777831410 | 20.56° C | 35% | 1020.7 hPa | - | - | - | - |
| 1777830812 | 20° C | 40% | 1021.3 hPa | - | - | - | - |
| 1777830208 | 20° C | 40% | 1021.3 hPa | - | - | - | - |
| 1777829610 | 20° C | 40% | 1021.3 hPa | - | - | - | - |
| 1777829008 | 20° C | 40% | 1021.3 hPa | - | - | - | - |
| 1777828408 | 20° C | 40% | 1021.3 hPa | - | - | - | - |
| 1777827810 | 20° C | 40% | 1021.3 hPa | - | - | - | - |
| 1777827214 | 17.78° C | 42% | 1022 hPa | - | - | - | - |
| 1777826611 | 17.78° C | 42% | 1022 hPa | - | - | - | - |
| 1777826015 | 17.78° C | 42% | 1022 hPa | - | - | - | - |
| 1777825414 | 17.78° C | 42% | 1022 hPa | - | - | - | - |
| 1777824813 | 17.78° C | 42% | 1022 hPa | - | - | - | - |
| 1777824216 | 17.78° C | 42% | 1022 hPa | - | - | - | - |
| 1777823614 | 16.67° C | 55% | 1022 hPa | - | - | - | - |
| 1777823014 | 16.67° C | 55% | 1022 hPa | - | - | - | - |
| 1777822414 | 16.67° C | 55% | 1022 hPa | - | - | - | - |
| 1777821815 | 16.67° C | 55% | 1022 hPa | - | - | - | - |
| 1777821213 | 16.67° C | 55% | 1022 hPa | - | - | - | - |
| 1777820613 | 16.67° C | 55% | 1022 hPa | - | - | - | - |
| 1777820014 | 13.89° C | 67% | 1021.7 hPa | - | - | - | - |
| 1777819415 | 13.89° C | 67% | 1021.7 hPa | - | - | - | - |
| 1777818812 | 13.89° C | 67% | 1021.7 hPa | - | - | - | - |
| 1777818210 | 13.89° C | 67% | 1021.7 hPa | - | - | - | - |
| 1777817606 | 13.89° C | 67% | 1021.7 hPa | - | - | - | - |
| 1777817010 | 11.67° C | 81% | 1021.3 hPa | - | - | - | - |
* Rain since midnight (hover to see other rain measurements)
** Current wind speed in m/s (hover to see current wind gust speed)